createdAt,value
2019-06-07T00:01:48.789Z,16.97
2019-06-07T00:05:17.162Z,15.60
2019-06-07T00:08:38.453Z,16.33
2019-06-07T00:12:02.283Z,16.83
2019-06-07T00:15:29.014Z,16.83
2019-06-07T00:18:51.467Z,17.90
2019-06-07T00:22:28.519Z,18.50
2019-06-07T00:25:41.163Z,20.17
2019-06-07T00:29:05.993Z,29.07
2019-06-07T00:32:29.976Z,20.63
2019-06-07T00:35:53.868Z,20.10
2019-06-07T00:39:21.942Z,20.97
2019-06-07T00:42:43.605Z,18.90
2019-06-07T00:46:08.070Z,17.10
2019-06-07T00:49:40.473Z,19.50
2019-06-07T00:56:23.531Z,18.60
2019-06-07T00:59:47.740Z,19.20
2019-06-07T01:03:12.742Z,18.77
2019-06-07T01:06:37.643Z,18.50
2019-06-07T01:10:01.785Z,19.60
2019-06-07T01:13:26.973Z,20.03
2019-06-07T01:16:57.284Z,23.03
2019-06-07T01:20:21.218Z,20.33
2019-06-07T01:27:09.083Z,22.07
2019-06-07T01:30:33.046Z,21.13
2019-06-07T01:33:56.950Z,21.67
2019-06-07T01:37:25.023Z,22.43
2019-06-07T01:40:46.341Z,22.73
2019-06-07T01:44:10.225Z,23.53
2019-06-07T01:47:34.112Z,24.80
2019-06-07T01:50:58.070Z,26.50
2019-06-07T01:57:48.657Z,27.27
2019-06-07T02:01:12.702Z,29.53
2019-06-07T02:04:36.577Z,27.60
2019-06-07T02:08:00.559Z,29.00
2019-06-07T02:11:25.994Z,30.13
2019-06-07T02:14:49.859Z,28.97
2019-06-07T02:18:13.583Z,27.07
2019-06-07T02:21:37.400Z,27.93
2019-06-07T02:28:37.044Z,31.70
2019-06-07T02:31:52.109Z,32.50
2019-06-07T02:35:16.214Z,29.73
2019-06-07T02:38:39.981Z,30.53
2019-06-07T02:42:03.980Z,31.70
2019-06-07T02:45:35.526Z,32.93
2019-06-07T02:48:54.567Z,34.50
2019-06-07T02:52:18.807Z,33.30
2019-06-07T02:56:32.810Z,31.33
2019-06-07T02:59:08.066Z,32.67
2019-06-07T03:02:40.252Z,31.40
2019-06-07T03:05:58.260Z,33.50
2019-06-07T03:09:22.291Z,32.63
2019-06-07T03:12:48.930Z,30.40
2019-06-07T03:16:14.448Z,30.97
2019-06-07T03:19:41.599Z,29.87
2019-06-07T03:23:05.667Z,30.53
2019-06-07T03:26:31.326Z,33.13
2019-06-07T03:29:55.199Z,30.57
2019-06-07T03:33:18.981Z,32.50
2019-06-07T03:36:42.883Z,29.73
2019-06-07T03:40:07.570Z,31.50
2019-06-07T03:43:35.037Z,30.93
2019-06-07T03:46:56.974Z,30.83
2019-06-07T03:50:20.747Z,28.43
2019-06-07T03:53:44.714Z,27.43
2019-06-07T03:57:08.593Z,26.07
2019-06-07T04:00:36.596Z,25.13
2019-06-07T04:03:58.332Z,24.70
2019-06-07T04:07:22.210Z,24.43
2019-06-07T04:10:59.038Z,23.07
2019-06-07T04:14:11.789Z,24.63
2019-06-07T04:17:37.105Z,24.10
2019-06-07T04:21:01.217Z,24.13
2019-06-07T04:24:24.990Z,23.33
2019-06-07T04:27:48.853Z,22.77
2019-06-07T04:31:12.740Z,22.23
2019-06-07T04:34:42.041Z,19.73
2019-06-07T04:38:02.673Z,19.47
2019-06-07T04:41:28.722Z,18.47
2019-06-07T04:44:53.756Z,20.60
2019-06-07T04:48:19.130Z,18.40
2019-06-07T04:51:44.896Z,17.43
2019-06-07T04:55:08.935Z,17.83
2019-06-07T04:58:33.368Z,16.43
2019-06-07T05:01:57.306Z,17.83
2019-06-07T05:05:20.977Z,16.03
2019-06-07T05:08:44.943Z,17.63
2019-06-07T05:12:08.873Z,16.33
2019-06-07T05:15:34.632Z,15.30
2019-06-07T05:18:58.784Z,16.07
2019-06-07T05:22:22.761Z,15.50
2019-06-07T05:25:46.636Z,13.43
2019-06-07T05:29:10.521Z,14.60
2019-06-07T05:32:36.795Z,14.30
2019-06-07T05:36:00.192Z,14.00
2019-06-07T05:39:24.174Z,14.23
2019-06-07T05:42:48.197Z,14.63
2019-06-07T05:46:12.048Z,12.87
2019-06-07T05:49:39.191Z,14.33
2019-06-07T05:53:01.270Z,14.90
2019-06-07T05:56:25.247Z,14.27
2019-06-07T05:59:49.111Z,13.60
2019-06-07T06:03:13.011Z,14.37
2019-06-07T06:06:38.813Z,15.17
2019-06-07T06:10:02.191Z,14.40
2019-06-07T06:13:26.173Z,14.90
2019-06-07T06:16:50.243Z,15.60
2019-06-07T06:20:15.341Z,13.67
2019-06-07T06:23:40.741Z,13.80
2019-06-07T06:27:18.868Z,13.97
2019-06-07T06:30:30.202Z,14.93
2019-06-07T06:33:54.035Z,15.33
2019-06-07T06:37:17.870Z,15.03
2019-06-07T06:40:46.121Z,14.00
2019-06-07T06:44:07.098Z,15.03
2019-06-07T06:47:31.046Z,17.60
2019-06-07T06:50:54.886Z,16.10
2019-06-07T06:54:39.516Z,15.50
2019-06-07T06:57:45.915Z,15.20
2019-06-07T07:01:11.383Z,14.40
2019-06-07T07:04:35.566Z,14.80
2019-06-07T07:07:59.533Z,14.33
2019-06-07T07:11:23.639Z,14.70
2019-06-07T07:14:49.645Z,14.40
2019-06-07T07:18:13.143Z,13.43
2019-06-07T07:21:37.326Z,13.90
2019-06-07T07:25:01.214Z,13.03
2019-06-07T07:28:25.283Z,13.40
2019-06-07T07:31:52.386Z,12.60
2019-06-07T07:35:14.697Z,12.70
2019-06-07T07:38:38.581Z,12.57
2019-06-07T07:42:20.247Z,13.63
2019-06-07T07:45:29.024Z,13.03
2019-06-07T07:48:54.608Z,12.73
2019-06-07T07:52:18.714Z,12.90
2019-06-07T07:55:44.916Z,13.63
2019-06-07T07:59:08.928Z,13.63
2019-06-07T08:02:33.011Z,12.13
2019-06-07T08:05:58.914Z,12.80
2019-06-07T08:09:22.565Z,10.37
2019-06-07T08:13:08.753Z,9.00
2019-06-07T08:16:16.493Z,10.00
2019-06-07T08:19:37.867Z,8.97
2019-06-07T08:23:01.936Z,8.43
2019-06-07T08:26:25.922Z,8.70
2019-06-07T08:30:10.230Z,9.37
2019-06-07T08:33:26.075Z,10.83
2019-06-07T08:36:42.614Z,9.30
2019-06-07T08:40:08.307Z,11.07
2019-06-07T08:43:33.053Z,9.77
2019-06-07T08:47:18.438Z,11.60
2019-06-07T08:50:22.606Z,11.23
2019-06-07T08:54:02.973Z,12.00
2019-06-07T08:57:21.331Z,10.10
2019-06-07T09:00:46.991Z,10.30
2019-06-07T09:04:10.084Z,8.80
2019-06-07T09:07:28.894Z,10.50
2019-06-07T09:10:54.079Z,10.70
2019-06-07T09:14:18.996Z,10.90
2019-06-07T09:18:29.712Z,10.03
2019-06-07T09:21:09.759Z,10.90
2019-06-07T09:24:34.103Z,11.27
2019-06-07T09:28:00.570Z,10.93
2019-06-07T09:31:23.631Z,11.37
2019-06-07T09:34:47.510Z,11.97
2019-06-07T09:38:24.104Z,12.63
2019-06-07T09:41:47.410Z,11.40
2019-06-07T09:45:06.572Z,11.87
2019-06-07T09:49:09.917Z,11.87
2019-06-07T09:51:53.885Z,12.30
2019-06-07T09:55:24.643Z,12.33
2019-06-07T09:58:52.858Z,13.87
2019-06-07T10:02:13.685Z,13.37
2019-06-07T10:05:36.981Z,13.47
2019-06-07T10:10:08.177Z,12.33
2019-06-07T10:12:26.584Z,13.40
2019-06-07T10:15:53.650Z,12.83
2019-06-07T10:19:16.009Z,13.03
2019-06-07T10:22:39.865Z,14.60
2019-06-07T10:26:04.112Z,14.20
2019-06-07T10:29:28.348Z,13.93
2019-06-07T10:32:52.418Z,13.57
2019-06-07T10:36:16.426Z,13.07
2019-06-07T10:39:48.628Z,14.47
2019-06-07T10:43:07.110Z,13.07
2019-06-07T10:46:31.324Z,10.00
2019-06-07T10:49:55.193Z,10.43
2019-06-07T10:53:19.096Z,11.90
2019-06-07T10:56:45.536Z,13.10
2019-06-07T11:00:11.723Z,10.17
2019-06-07T11:03:35.765Z,9.00
2019-06-07T11:06:59.756Z,8.70
2019-06-07T11:10:23.744Z,8.03
2019-06-07T11:13:47.463Z,9.40
2019-06-07T11:17:11.451Z,12.10
2019-06-07T11:20:35.376Z,14.57
2019-06-07T11:23:59.350Z,17.30
2019-06-07T11:27:23.240Z,17.00
2019-06-07T11:30:47.092Z,15.60
2019-06-07T11:34:12.477Z,16.97
2019-06-07T11:37:36.611Z,15.13
2019-06-07T11:41:00.806Z,16.77
2019-06-07T11:44:24.888Z,14.67
2019-06-07T11:47:48.985Z,14.30
2019-06-07T11:51:12.977Z,15.30
2019-06-07T11:54:36.841Z,13.20
2019-06-07T11:58:00.846Z,11.80
2019-06-07T12:01:25.010Z,10.60
2019-06-07T12:04:49.201Z,10.17
2019-06-07T12:08:14.028Z,10.23
2019-06-07T12:11:38.403Z,9.10
2019-06-07T12:15:02.489Z,10.33
2019-06-07T12:18:26.451Z,9.70
2019-06-07T12:21:50.470Z,8.60
2019-06-07T12:25:21.588Z,8.47
2019-06-07T12:28:41.819Z,8.57
2019-06-07T12:32:05.895Z,9.43
2019-06-07T12:35:31.809Z,10.20
2019-06-07T12:38:55.704Z,9.93
2019-06-07T12:42:20.605Z,9.83
2019-06-07T12:45:45.611Z,9.60
2019-06-07T12:49:09.803Z,11.20
2019-06-07T12:52:36.357Z,10.47
2019-06-07T12:56:00.398Z,10.20
2019-06-07T12:59:24.816Z,10.73
2019-06-07T13:02:49.021Z,10.20
2019-06-07T13:06:12.885Z,10.17
2019-06-07T13:09:36.875Z,9.40
2019-06-07T13:13:02.494Z,9.67
2019-06-07T13:16:28.477Z,8.57
2019-06-07T13:19:54.036Z,8.80
2019-06-07T13:23:19.217Z,8.73
2019-06-07T13:26:43.573Z,10.90
2019-06-07T13:30:10.287Z,10.20
2019-06-07T13:33:38.663Z,10.13
2019-06-07T13:36:59.985Z,9.57
2019-06-07T13:40:25.220Z,11.03
2019-06-07T13:43:51.629Z,11.93
2019-06-07T13:47:15.040Z,10.77
2019-06-07T13:50:39.012Z,11.13
2019-06-07T13:54:03.513Z,11.27
2019-06-07T13:57:28.142Z,12.10
2019-06-07T14:00:52.162Z,11.90
2019-06-07T14:04:16.289Z,11.77
2019-06-07T14:07:40.165Z,11.83
2019-06-07T14:11:04.076Z,12.97
2019-06-07T14:14:29.197Z,11.57
2019-06-07T14:17:54.161Z,12.20
2019-06-07T14:21:18.755Z,12.17
2019-06-07T14:24:42.850Z,12.63
2019-06-07T14:28:11.541Z,13.17
2019-06-07T14:31:33.702Z,13.83
2019-06-07T14:34:57.979Z,18.67
2019-06-07T14:38:23.059Z,25.43
2019-06-07T14:41:47.046Z,15.57
2019-06-07T14:45:11.432Z,14.00
2019-06-07T14:48:35.544Z,12.10
2019-06-07T14:51:59.519Z,14.10
2019-06-07T14:55:25.131Z,14.17
2019-06-07T14:58:49.336Z,14.40
2019-06-07T15:02:13.313Z,15.67
2019-06-07T15:05:37.409Z,14.37
2019-06-07T15:09:02.935Z,14.57
2019-06-07T15:12:27.500Z,15.00
2019-06-07T15:15:51.916Z,22.73
2019-06-07T15:19:16.119Z,24.30
2019-06-07T15:22:40.088Z,20.40
2019-06-07T15:26:04.191Z,34.67
2019-06-07T15:29:29.650Z,25.37
2019-06-07T15:32:53.773Z,23.13
2019-06-07T15:36:20.259Z,23.00
2019-06-07T15:39:44.219Z,20.47
2019-06-07T15:43:08.038Z,21.80
2019-06-07T15:46:33.603Z,23.37
2019-06-07T15:50:01.906Z,22.13
2019-06-07T15:53:26.694Z,25.30
2019-06-07T15:56:50.525Z,23.37
2019-06-07T16:00:19.440Z,23.43
2019-06-07T16:03:43.656Z,23.70
2019-06-07T16:07:07.673Z,23.50
2019-06-07T16:10:32.625Z,23.43
2019-06-07T16:13:56.848Z,24.07
2019-06-07T16:17:20.818Z,23.37
2019-06-07T16:20:45.021Z,24.50
2019-06-07T16:24:09.057Z,24.60
2019-06-07T16:27:34.342Z,21.97
2019-06-07T16:30:58.804Z,21.33
2019-06-07T16:34:23.148Z,21.67
2019-06-07T16:37:50.317Z,18.77
2019-06-07T16:41:14.697Z,17.93
2019-06-07T16:44:38.882Z,25.20
2019-06-07T16:48:13.820Z,22.27
2019-06-07T16:51:39.087Z,21.00
2019-06-07T16:55:03.296Z,23.53
2019-06-07T16:58:29.352Z,23.63
2019-06-07T17:01:55.041Z,25.93
2019-06-07T17:05:19.607Z,25.60
2019-06-07T17:08:44.286Z,25.47
2019-06-07T17:12:08.625Z,28.67
2019-06-07T17:15:32.814Z,64.57
2019-06-07T17:18:57.104Z,32.20
2019-06-07T17:22:22.048Z,29.40
2019-06-07T17:25:47.540Z,30.70
2019-06-07T17:29:12.341Z,26.27
2019-06-07T17:32:48.521Z,27.13
2019-06-07T17:36:02.974Z,40.10
2019-06-07T17:39:27.360Z,27.63
2019-06-07T17:42:52.400Z,29.57
2019-06-07T17:46:18.238Z,29.50
2019-06-07T17:49:44.124Z,34.67
2019-06-07T17:53:08.103Z,32.77
2019-06-07T17:56:32.445Z,36.70
2019-06-07T17:59:57.544Z,36.83
2019-06-07T18:03:21.910Z,37.57
2019-06-07T18:06:47.395Z,41.17
2019-06-07T18:10:12.136Z,38.07
2019-06-07T18:13:36.306Z,41.53
2019-06-07T18:17:00.905Z,44.53
2019-06-07T18:20:28.410Z,47.87
2019-06-07T18:23:53.005Z,45.97
2019-06-07T18:27:17.472Z,41.37
2019-06-07T18:30:41.754Z,45.47
2019-06-07T18:34:05.976Z,46.63
2019-06-07T18:37:31.681Z,49.73
2019-06-07T18:40:55.854Z,49.40
2019-06-07T18:44:21.918Z,55.33
2019-06-07T18:47:47.816Z,56.33
2019-06-07T18:51:11.925Z,62.07
2019-06-07T18:54:36.030Z,64.77
2019-06-07T18:58:00.179Z,63.77
2019-06-07T19:01:24.639Z,72.37
2019-06-07T19:04:50.493Z,71.23
2019-06-07T19:08:15.563Z,67.00
2019-06-07T19:11:41.294Z,68.10
2019-06-07T19:15:11.810Z,67.03
2019-06-07T19:18:37.388Z,66.93
2019-06-07T19:22:01.471Z,65.23
2019-06-07T19:25:25.659Z,69.60
2019-06-07T19:28:50.589Z,57.53
2019-06-07T19:32:14.861Z,60.60
2019-06-07T19:35:39.387Z,63.97
2019-06-07T19:39:03.339Z,67.97
2019-06-07T19:42:27.734Z,71.17
2019-06-07T19:45:52.075Z,61.70
2019-06-07T19:49:16.312Z,61.77
2019-06-07T19:52:40.714Z,69.57
2019-06-07T19:56:04.705Z,63.30
2019-06-07T19:59:29.420Z,74.97
2019-06-07T20:02:54.212Z,75.60
2019-06-07T20:06:18.177Z,63.87
2019-06-07T20:09:43.403Z,104.00
2019-06-07T20:13:07.620Z,77.13
2019-06-07T20:16:31.704Z,71.10
2019-06-07T20:19:56.265Z,67.97
2019-06-07T20:23:20.463Z,67.47
2019-06-07T20:26:52.547Z,71.03
2019-06-07T20:30:14.358Z,64.67
2019-06-07T20:33:38.501Z,61.70
2019-06-07T20:37:05.164Z,63.53
2019-06-07T20:40:28.571Z,59.93
2019-06-07T20:43:53.069Z,66.30
2019-06-07T20:47:17.448Z,64.07
2019-06-07T20:50:41.399Z,60.27
2019-06-07T20:54:07.371Z,60.23
2019-06-07T20:57:32.677Z,66.57
2019-06-07T21:00:58.645Z,77.07
2019-06-07T21:04:22.712Z,68.00
2019-06-07T21:07:46.816Z,57.40
2019-06-07T21:11:11.174Z,61.03
2019-06-07T21:14:35.471Z,61.23
2019-06-07T21:18:00.255Z,52.77
2019-06-07T21:21:25.278Z,61.83
2019-06-07T21:24:49.857Z,54.87
2019-06-07T21:28:14.368Z,49.70
2019-06-07T21:31:40.196Z,67.20
2019-06-07T21:35:09.984Z,49.47
2019-06-07T21:38:34.510Z,62.33
2019-06-07T21:41:59.110Z,51.27
2019-06-07T21:45:23.350Z,74.90
2019-06-07T21:48:47.592Z,46.27
2019-06-07T21:52:13.899Z,58.30
2019-06-07T21:55:38.124Z,51.17
2019-06-07T21:59:02.959Z,58.87
2019-06-07T22:02:27.206Z,53.33
2019-06-07T22:05:51.494Z,54.10
2019-06-07T22:09:16.098Z,61.60
2019-06-07T22:12:40.080Z,56.40
2019-06-07T22:16:04.140Z,48.07
2019-06-07T22:19:28.966Z,60.80
2019-06-07T22:22:53.671Z,64.10
2019-06-07T22:26:18.059Z,69.73
2019-06-07T22:29:42.561Z,65.30
2019-06-07T22:33:06.584Z,64.07
2019-06-07T22:36:31.318Z,59.77
2019-06-07T22:39:56.657Z,56.33
2019-06-07T22:43:21.160Z,57.73
2019-06-07T22:46:47.523Z,58.53
2019-06-07T22:50:12.735Z,56.30
2019-06-07T22:53:38.595Z,62.77
2019-06-07T22:57:04.870Z,60.97
2019-06-07T23:00:34.296Z,60.97
2019-06-07T23:03:58.465Z,100.70
2019-06-07T23:07:22.484Z,149.73
2019-06-07T23:10:46.740Z,66.00
2019-06-07T23:14:13.379Z,63.87
2019-06-07T23:17:37.972Z,65.20
2019-06-07T23:21:02.594Z,91.33
2019-06-07T23:24:26.548Z,68.03
2019-06-07T23:27:50.378Z,69.90
2019-06-07T23:31:14.421Z,76.10
2019-06-07T23:34:38.622Z,69.70
2019-06-07T23:38:02.476Z,58.67
2019-06-07T23:41:26.360Z,60.10
2019-06-07T23:44:50.133Z,72.03
2019-06-07T23:48:13.902Z,65.37
2019-06-07T23:51:37.823Z,111.60
2019-06-07T23:55:02.526Z,85.50
2019-06-07T23:58:26.285Z,75.57
